createdAt,value
2018-03-15T00:00:45.243Z,6.85
2018-03-15T00:01:45.039Z,6.95
2018-03-15T00:02:45.031Z,6.88
2018-03-15T00:03:45.007Z,6.85
2018-03-15T00:04:45.217Z,6.82
2018-03-15T00:05:45.212Z,6.88
2018-03-15T00:06:44.992Z,6.84
2018-03-15T00:07:45.008Z,6.81
2018-03-15T00:08:44.991Z,6.84
2018-03-15T00:09:44.989Z,6.75
2018-03-15T00:10:44.982Z,6.78
2018-03-15T00:11:45.186Z,6.77
2018-03-15T00:12:45.173Z,6.75
2018-03-15T00:13:44.966Z,6.79
2018-03-15T00:14:44.948Z,6.72
2018-03-15T00:15:44.942Z,6.77
2018-03-15T00:16:44.934Z,6.82
2018-03-15T00:17:44.950Z,6.84
2018-03-15T00:18:44.923Z,6.89
2018-03-15T00:19:45.143Z,6.81
2018-03-15T00:20:44.925Z,6.81
2018-03-15T00:21:45.111Z,6.87
2018-03-15T00:22:44.908Z,6.81
2018-03-15T00:23:45.110Z,6.84
2018-03-15T00:24:44.901Z,6.81
2018-03-15T00:25:45.091Z,6.78
2018-03-15T00:26:44.892Z,6.70
2018-03-15T00:27:44.872Z,6.69
2018-03-15T00:28:51.575Z,6.67
2018-03-15T00:29:44.871Z,6.77
2018-03-15T00:30:45.057Z,6.77
2018-03-15T00:31:44.858Z,6.82
2018-03-15T00:32:44.843Z,6.74
2018-03-15T00:33:44.838Z,6.78
2018-03-15T00:34:44.855Z,6.75
2018-03-15T00:35:44.835Z,6.66
2018-03-15T00:36:44.826Z,6.75
2018-03-15T00:37:45.029Z,6.66
2018-03-15T00:38:45.026Z,6.60
2018-03-15T00:39:44.862Z,6.60
2018-03-15T00:40:44.809Z,6.64
2018-03-15T00:41:44.800Z,6.56
2018-03-15T00:42:44.784Z,6.62
2018-03-15T00:43:44.982Z,6.74
2018-03-15T00:44:44.786Z,6.82
2018-03-15T00:45:44.777Z,6.66
2018-03-15T00:46:44.773Z,6.67
2018-03-15T00:47:44.769Z,6.72
2018-03-15T00:48:44.752Z,6.66
2018-03-15T00:49:44.946Z,6.64
2018-03-15T00:50:44.739Z,6.66
2018-03-15T00:51:44.732Z,6.66
2018-03-15T00:52:44.761Z,6.60
2018-03-15T00:53:44.722Z,6.56
2018-03-15T00:54:44.727Z,6.62
2018-03-15T00:55:44.720Z,6.64
2018-03-15T00:56:44.918Z,6.56
2018-03-15T00:57:44.696Z,6.52
2018-03-15T00:58:44.703Z,6.59
2018-03-15T00:59:44.898Z,6.52
2018-03-15T01:00:44.885Z,6.54
2018-03-15T01:01:44.890Z,6.52
2018-03-15T01:02:44.680Z,6.44
2018-03-15T01:03:44.671Z,6.44
2018-03-15T01:04:44.666Z,6.46
2018-03-15T01:05:44.691Z,6.45
2018-03-15T01:06:44.870Z,6.44
2018-03-15T01:07:44.651Z,6.42
2018-03-15T01:08:44.647Z,6.36
2018-03-15T01:09:44.832Z,6.38
2018-03-15T01:10:44.634Z,6.38
2018-03-15T01:11:44.625Z,6.27
2018-03-15T01:12:44.634Z,6.27
2018-03-15T01:13:44.809Z,6.33
2018-03-15T01:14:44.617Z,6.24
2018-03-15T01:15:44.595Z,6.30
2018-03-15T01:16:44.587Z,6.26
2018-03-15T01:17:44.581Z,6.22
2018-03-15T01:18:44.792Z,6.26
2018-03-15T01:19:44.590Z,6.26
2018-03-15T01:20:44.778Z,6.20
2018-03-15T01:21:44.569Z,6.19
2018-03-15T01:22:44.768Z,6.19
2018-03-15T01:23:44.545Z,6.22
2018-03-15T01:24:44.762Z,6.20
2018-03-15T01:25:44.738Z,6.19
2018-03-15T01:26:44.540Z,6.20
2018-03-15T01:27:44.539Z,6.24
2018-03-15T01:28:44.515Z,6.26
2018-03-15T01:29:44.716Z,6.12
2018-03-15T01:30:44.515Z,6.17
2018-03-15T01:31:44.522Z,6.19
2018-03-15T01:32:44.504Z,6.19
2018-03-15T01:33:44.710Z,6.17
2018-03-15T01:34:44.492Z,6.24
2018-03-15T01:35:44.500Z,6.27
2018-03-15T01:36:44.481Z,6.22
2018-03-15T01:37:44.689Z,6.12
2018-03-15T01:38:44.464Z,6.17
2018-03-15T01:39:44.656Z,6.12
2018-03-15T01:40:44.651Z,6.26
2018-03-15T01:41:44.442Z,6.11
2018-03-15T01:42:44.445Z,6.20
2018-03-15T01:43:44.432Z,6.16
2018-03-15T01:44:44.432Z,6.17
2018-03-15T01:45:44.426Z,6.07
2018-03-15T01:46:44.618Z,6.12
2018-03-15T01:47:44.426Z,6.11
2018-03-15T01:48:44.412Z,6.11
2018-03-15T01:49:44.404Z,6.07
2018-03-15T01:50:44.384Z,6.01
2018-03-15T01:51:44.389Z,6.05
2018-03-15T01:52:44.376Z,6.02
2018-03-15T01:53:44.570Z,6.08
2018-03-15T01:54:44.564Z,6.05
2018-03-15T01:55:44.556Z,6.12
2018-03-15T01:56:44.563Z,6.05
2018-03-15T01:57:44.341Z,6.08
2018-03-15T01:58:44.553Z,6.16
2018-03-15T01:59:44.552Z,6.09
2018-03-15T02:00:44.347Z,6.01
2018-03-15T02:01:44.318Z,6.01
2018-03-15T02:02:44.324Z,6.04
2018-03-15T02:03:44.320Z,6.02
2018-03-15T02:04:44.296Z,6.02
2018-03-15T02:05:44.292Z,6.05
2018-03-15T02:06:44.503Z,6.07
2018-03-15T02:07:44.282Z,6.05
2018-03-15T02:08:44.273Z,5.99
2018-03-15T02:09:44.475Z,6.11
2018-03-15T02:10:44.265Z,6.04
2018-03-15T02:11:44.256Z,6.04
2018-03-15T02:12:44.273Z,6.04
2018-03-15T02:13:44.256Z,6.08
2018-03-15T02:14:44.462Z,6.12
2018-03-15T02:15:44.234Z,6.04
2018-03-15T02:16:44.471Z,6.05
2018-03-15T02:17:44.247Z,5.98
2018-03-15T02:18:44.252Z,5.97
2018-03-15T02:19:44.218Z,6.07
2018-03-15T02:20:44.226Z,6.05
2018-03-15T02:21:44.194Z,5.97
2018-03-15T02:22:44.390Z,6.01
2018-03-15T02:23:44.209Z,5.98
2018-03-15T02:24:44.187Z,6.05
2018-03-15T02:25:44.374Z,6.01
2018-03-15T02:26:44.177Z,6.04
2018-03-15T02:27:44.160Z,6.12
2018-03-15T02:28:44.164Z,6.04
2018-03-15T02:29:44.344Z,6.01
2018-03-15T02:30:44.350Z,6.07
2018-03-15T02:31:44.131Z,6.04
2018-03-15T02:32:44.139Z,5.99
2018-03-15T02:33:44.117Z,6.02
2018-03-15T02:34:44.138Z,5.97
2018-03-15T02:35:44.310Z,6.01
2018-03-15T02:36:44.310Z,5.93
2018-03-15T02:37:44.116Z,5.97
2018-03-15T02:38:44.304Z,5.94
2018-03-15T02:39:44.078Z,5.82
2018-03-15T02:40:44.084Z,5.89
2018-03-15T02:41:44.078Z,5.87
2018-03-15T02:42:44.074Z,5.84
2018-03-15T02:43:44.054Z,5.89
2018-03-15T02:44:44.057Z,5.94
2018-03-15T02:45:44.247Z,6.01
2018-03-15T02:46:44.251Z,6.07
2018-03-15T02:47:44.028Z,6.11
2018-03-15T02:48:44.030Z,6.04
2018-03-15T02:49:44.025Z,6.05
2018-03-15T02:50:44.027Z,6.01
2018-03-15T02:51:44.232Z,6.07
2018-03-15T02:52:44.009Z,6.07
2018-03-15T02:53:44.006Z,6.04
2018-03-15T02:54:44.007Z,6.01
2018-03-15T02:55:43.976Z,6.05
2018-03-15T02:56:43.986Z,6.07
2018-03-15T02:57:43.964Z,5.93
2018-03-15T02:58:43.961Z,6.02
2018-03-15T02:59:44.177Z,6.05
2018-03-15T03:00:44.173Z,6.01
2018-03-15T03:01:43.953Z,5.99
2018-03-15T03:02:43.933Z,6.07
2018-03-15T03:03:43.934Z,6.04
2018-03-15T03:04:43.941Z,5.98
2018-03-15T03:05:43.925Z,5.98
2018-03-15T03:06:43.936Z,5.97
2018-03-15T03:07:43.924Z,5.99
2018-03-15T03:08:44.118Z,5.94
2018-03-15T03:09:43.897Z,6.04
2018-03-15T03:10:43.895Z,6.01
2018-03-15T03:11:43.897Z,6.04
2018-03-15T03:12:43.889Z,6.05
2018-03-15T03:13:43.873Z,6.04
2018-03-15T03:14:44.064Z,6.02
2018-03-15T03:15:43.850Z,5.93
2018-03-15T03:16:43.840Z,5.94
2018-03-15T03:17:43.845Z,5.99
2018-03-15T03:18:43.834Z,5.93
2018-03-15T03:19:44.039Z,5.99
2018-03-15T03:20:43.816Z,5.90
2018-03-15T03:21:43.820Z,6.02
2018-03-15T03:22:44.017Z,5.98
2018-03-15T03:23:43.807Z,5.86
2018-03-15T03:24:43.787Z,6.01
2018-03-15T03:25:43.999Z,6.02
2018-03-15T03:26:43.777Z,5.98
2018-03-15T03:27:44.274Z,6.02
2018-03-15T03:28:43.972Z,5.97
2018-03-15T03:29:43.973Z,5.91
2018-03-15T03:30:43.759Z,5.89
2018-03-15T03:31:43.757Z,5.83
2018-03-15T03:32:44.012Z,5.94
2018-03-15T03:33:43.744Z,5.94
2018-03-15T03:34:43.737Z,5.98
2018-03-15T03:35:43.726Z,5.87
2018-03-15T03:36:43.736Z,6.05
2018-03-15T03:37:43.720Z,5.97
2018-03-15T03:38:43.914Z,6.02
2018-03-15T03:39:43.703Z,5.90
2018-03-15T03:40:43.926Z,5.93
2018-03-15T03:41:43.692Z,5.90
2018-03-15T03:42:43.682Z,5.86
2018-03-15T03:43:43.665Z,5.83
2018-03-15T03:44:43.701Z,6.02
2018-03-15T03:45:43.653Z,6.04
2018-03-15T03:46:43.658Z,6.04
2018-03-15T03:47:43.856Z,6.07
2018-03-15T03:48:43.635Z,6.07
2018-03-15T03:49:43.650Z,6.04
2018-03-15T03:50:43.625Z,6.01
2018-03-15T03:51:43.615Z,5.94
2018-03-15T03:52:43.608Z,5.90
2018-03-15T03:53:43.830Z,5.99
2018-03-15T03:54:43.802Z,5.94
2018-03-15T03:55:43.600Z,6.01
2018-03-15T03:56:43.593Z,6.02
2018-03-15T03:57:43.584Z,6.05
2018-03-15T03:58:43.605Z,6.02
2018-03-15T03:59:43.575Z,5.87
2018-03-15T04:00:43.566Z,5.98
2018-03-15T04:01:43.565Z,5.89
2018-03-15T04:02:43.747Z,5.89
2018-03-15T04:03:43.535Z,6.01
2018-03-15T04:04:43.544Z,5.93
2018-03-15T04:05:43.521Z,5.94
2018-03-15T04:06:43.540Z,5.86
2018-03-15T04:07:43.716Z,5.94
2018-03-15T04:08:43.518Z,5.98
2018-03-15T04:09:43.712Z,6.05
2018-03-15T04:10:43.720Z,5.91
2018-03-15T04:11:43.698Z,5.98
2018-03-15T04:12:43.486Z,5.97
2018-03-15T04:13:43.682Z,5.99
2018-03-15T04:14:43.680Z,5.97
2018-03-15T04:15:43.466Z,6.01
2018-03-15T04:16:43.463Z,6.01
2018-03-15T04:17:43.455Z,6.05
2018-03-15T04:18:43.450Z,6.05
2018-03-15T04:19:43.437Z,5.97
2018-03-15T04:20:43.438Z,5.87
2018-03-15T04:21:43.429Z,5.89
2018-03-15T04:22:43.412Z,5.97
2018-03-15T04:23:43.619Z,6.04
2018-03-15T04:24:43.402Z,5.99
2018-03-15T04:25:43.407Z,5.91
2018-03-15T04:26:43.386Z,5.84
2018-03-15T04:27:43.598Z,5.87
2018-03-15T04:28:43.384Z,5.97
2018-03-15T04:29:43.387Z,5.97
2018-03-15T04:30:43.358Z,6.05
2018-03-15T04:31:43.565Z,5.93
2018-03-15T04:32:43.355Z,5.87
2018-03-15T04:33:43.363Z,5.93
2018-03-15T04:34:43.354Z,5.89
2018-03-15T04:35:43.326Z,5.97
2018-03-15T04:36:43.543Z,5.98
2018-03-15T04:37:43.334Z,6.05
2018-03-15T04:38:43.325Z,5.97
2018-03-15T04:39:43.499Z,6.04
2018-03-15T04:40:43.496Z,5.86
2018-03-15T04:41:43.284Z,5.91
2018-03-15T04:42:43.492Z,5.93
2018-03-15T04:43:43.476Z,5.86
2018-03-15T04:44:43.286Z,5.89
2018-03-15T04:45:43.473Z,5.82
2018-03-15T04:46:43.262Z,5.87
2018-03-15T04:47:43.256Z,5.82
2018-03-15T04:48:43.451Z,5.93
2018-03-15T04:49:43.246Z,5.90
2018-03-15T04:50:43.223Z,5.84
2018-03-15T04:51:43.244Z,5.86
2018-03-15T04:52:43.414Z,5.83
2018-03-15T04:53:43.419Z,5.99
2018-03-15T04:54:43.401Z,5.94
2018-03-15T04:55:43.406Z,5.87
2018-03-15T04:56:43.180Z,5.98
2018-03-15T04:57:43.383Z,5.90
2018-03-15T04:58:43.184Z,5.89
2018-03-15T04:59:43.159Z,5.93
2018-03-15T05:00:43.381Z,5.89
2018-03-15T05:01:43.162Z,5.98
2018-03-15T05:02:43.174Z,5.90
2018-03-15T05:03:43.135Z,5.99
2018-03-15T05:04:43.141Z,5.99
2018-03-15T05:05:43.378Z,5.97
2018-03-15T05:06:43.126Z,6.01
2018-03-15T05:07:43.108Z,5.99
2018-03-15T05:08:43.321Z,5.91
2018-03-15T05:09:43.094Z,5.97
2018-03-15T05:10:43.099Z,5.98
2018-03-15T05:11:43.107Z,6.01
2018-03-15T05:12:43.091Z,5.98
2018-03-15T05:13:43.093Z,5.97
2018-03-15T05:14:43.061Z,5.97
2018-03-15T05:15:43.053Z,6.02
2018-03-15T05:16:43.046Z,5.86
2018-03-15T05:17:43.060Z,5.79
2018-03-15T05:18:43.043Z,5.84
2018-03-15T05:19:43.029Z,5.83
2018-03-15T05:20:43.084Z,5.89
2018-03-15T05:21:43.019Z,5.93
2018-03-15T05:22:43.025Z,5.86
2018-03-15T05:23:43.005Z,5.93
2018-03-15T05:24:42.994Z,5.94
2018-03-15T05:25:43.200Z,6.07
2018-03-15T05:26:42.999Z,5.99
2018-03-15T05:27:43.200Z,6.04
2018-03-15T05:28:42.979Z,6.04
2018-03-15T05:29:42.957Z,5.97
2018-03-15T05:30:42.961Z,6.07
2018-03-15T05:31:42.943Z,6.07
2018-03-15T05:32:43.141Z,5.99
2018-03-15T05:33:43.138Z,6.02
2018-03-15T05:34:42.928Z,6.02
2018-03-15T05:35:42.940Z,6.01
2018-03-15T05:36:42.920Z,5.94
2018-03-15T05:37:42.907Z,5.89
2018-03-15T05:38:42.908Z,5.94
2018-03-15T05:39:42.901Z,5.98
2018-03-15T05:40:42.886Z,5.91
2018-03-15T05:41:43.080Z,6.01
2018-03-15T05:42:42.884Z,5.98
2018-03-15T05:43:42.877Z,5.93
2018-03-15T05:44:42.871Z,6.05
2018-03-15T05:45:42.862Z,5.99
2018-03-15T05:46:42.858Z,6.02
2018-03-15T05:47:42.848Z,5.91
2018-03-15T05:48:43.033Z,5.94
2018-03-15T05:49:43.054Z,6.05
2018-03-15T05:50:43.033Z,6.02
2018-03-15T05:51:42.824Z,6.05
2018-03-15T05:52:42.806Z,6.04
2018-03-15T05:53:42.796Z,6.04
2018-03-15T05:54:43.009Z,6.01
2018-03-15T05:55:42.804Z,6.01
2018-03-15T05:56:42.979Z,5.99
2018-03-15T05:57:42.985Z,6.02
2018-03-15T05:58:42.774Z,5.87
2018-03-15T05:59:42.767Z,6.05
2018-03-15T06:00:42.784Z,6.02
2018-03-15T06:01:42.747Z,6.01
2018-03-15T06:02:42.937Z,5.98
2018-03-15T06:03:42.932Z,5.98
2018-03-15T06:04:42.724Z,6.02
2018-03-15T06:05:42.714Z,6.19
2018-03-15T06:06:42.923Z,6.14
2018-03-15T06:07:42.711Z,6.14
2018-03-15T06:08:42.695Z,6.16
2018-03-15T06:09:42.700Z,6.22
2018-03-15T06:10:42.895Z,6.14
2018-03-15T06:11:42.699Z,6.26
2018-03-15T06:12:42.684Z,6.24
2018-03-15T06:13:42.865Z,6.22
2018-03-15T06:14:42.666Z,6.24
2018-03-15T06:15:42.647Z,6.17
2018-03-15T06:16:42.654Z,6.24
2018-03-15T06:17:42.637Z,6.28
2018-03-15T06:18:42.643Z,6.31
2018-03-15T06:19:42.649Z,6.22
2018-03-15T06:20:42.850Z,6.30
2018-03-15T06:21:42.611Z,6.30
2018-03-15T06:22:42.628Z,6.38
2018-03-15T06:23:42.597Z,6.33
2018-03-15T06:24:42.804Z,6.45
2018-03-15T06:25:42.795Z,6.45
2018-03-15T06:26:42.780Z,6.48
2018-03-15T06:27:42.819Z,6.48
2018-03-15T06:28:42.580Z,6.49
2018-03-15T06:29:42.595Z,6.45
2018-03-15T06:30:42.574Z,6.46
2018-03-15T06:31:42.556Z,6.48
2018-03-15T06:32:42.550Z,6.49
2018-03-15T06:33:42.533Z,6.51
2018-03-15T06:34:42.742Z,6.57
2018-03-15T06:35:42.533Z,6.59
2018-03-15T06:36:42.511Z,6.59
2018-03-15T06:37:42.528Z,6.60
2018-03-15T06:38:42.501Z,6.60
2018-03-15T06:39:42.708Z,6.62
2018-03-15T06:40:42.492Z,6.64
2018-03-15T06:41:42.478Z,6.67
2018-03-15T06:42:42.484Z,6.66
2018-03-15T06:43:42.668Z,6.70
2018-03-15T06:44:42.463Z,6.70
2018-03-15T06:45:42.456Z,6.77
2018-03-15T06:46:42.450Z,6.74
2018-03-15T06:47:42.442Z,6.77
2018-03-15T06:48:42.445Z,6.81
2018-03-15T06:49:42.442Z,6.87
2018-03-15T06:50:42.436Z,6.82
2018-03-15T06:51:42.446Z,6.81
2018-03-15T06:52:42.411Z,6.87
2018-03-15T06:53:42.645Z,6.88
2018-03-15T06:54:42.642Z,6.74
2018-03-15T06:55:42.403Z,6.81
2018-03-15T06:56:42.599Z,6.82
2018-03-15T06:57:42.381Z,6.85
2018-03-15T06:58:42.575Z,6.97
2018-03-15T06:59:42.389Z,6.92
2018-03-15T07:00:42.371Z,7.02
2018-03-15T07:01:42.556Z,7.05
2018-03-15T07:02:42.349Z,7.13
2018-03-15T07:03:42.340Z,7.21
2018-03-15T07:04:42.347Z,7.18
2018-03-15T07:05:42.346Z,7.23
2018-03-15T07:06:42.341Z,7.21
2018-03-15T07:07:42.533Z,7.29
2018-03-15T07:08:42.312Z,7.32
2018-03-15T07:09:42.318Z,7.40
2018-03-15T07:10:42.504Z,7.47
2018-03-15T07:11:42.292Z,7.51
2018-03-15T07:12:42.313Z,7.54
2018-03-15T07:13:42.283Z,7.50
2018-03-15T07:14:42.287Z,7.61
2018-03-15T07:15:42.267Z,7.60
2018-03-15T07:16:42.481Z,7.72
2018-03-15T07:17:42.268Z,7.70
2018-03-15T07:18:42.262Z,7.70
2018-03-15T07:19:42.460Z,7.67
2018-03-15T07:20:42.457Z,7.60
2018-03-15T07:21:42.465Z,7.66
2018-03-15T07:22:42.288Z,7.48
2018-03-15T07:23:42.440Z,7.66
2018-03-15T07:24:42.221Z,7.60
2018-03-15T07:25:42.220Z,7.63
2018-03-15T07:26:42.216Z,7.57
2018-03-15T07:27:42.208Z,7.58
2018-03-15T07:28:42.205Z,7.70
2018-03-15T07:29:42.391Z,7.75
2018-03-15T07:30:42.183Z,7.77
2018-03-15T07:31:42.185Z,7.94
2018-03-15T07:32:42.180Z,8.01
2018-03-15T07:33:42.186Z,7.98
2018-03-15T07:34:42.159Z,8.01
2018-03-15T07:35:42.170Z,7.95
2018-03-15T07:36:42.172Z,8.06
2018-03-15T07:37:42.149Z,8.23
2018-03-15T07:38:42.341Z,8.60
2018-03-15T07:39:42.332Z,8.88
2018-03-15T07:40:42.337Z,9.04
2018-03-15T07:41:42.323Z,9.13
2018-03-15T07:42:42.124Z,9.48
2018-03-15T07:43:42.105Z,9.74
2018-03-15T07:44:42.336Z,10.17
2018-03-15T07:45:42.097Z,10.09
2018-03-15T07:46:42.306Z,10.48
2018-03-15T07:47:42.106Z,10.59
2018-03-15T07:48:42.116Z,10.76
2018-03-15T07:49:42.073Z,10.75
2018-03-15T07:50:42.081Z,11.08
2018-03-15T07:51:42.272Z,10.96
2018-03-15T07:52:42.265Z,10.59
2018-03-15T07:53:42.066Z,10.74
2018-03-15T07:54:42.064Z,10.56
2018-03-15T07:55:42.056Z,10.74
2018-03-15T07:56:42.067Z,11.02
2018-03-15T07:57:42.075Z,11.25
2018-03-15T07:58:42.047Z,11.80
2018-03-15T07:59:42.029Z,11.43
2018-03-15T08:00:42.039Z,11.14
2018-03-15T08:01:42.046Z,10.96
2018-03-15T08:02:42.042Z,11.07
2018-03-15T08:03:42.027Z,11.05
2018-03-15T08:04:42.037Z,11.11
2018-03-15T08:05:42.007Z,11.78
2018-03-15T08:06:42.006Z,11.55
2018-03-15T08:07:42.012Z,11.68
2018-03-15T08:08:42.023Z,11.05
2018-03-15T08:09:42.211Z,11.26
2018-03-15T08:10:41.991Z,11.18
2018-03-15T08:11:41.991Z,11.66
2018-03-15T08:12:42.002Z,11.15
2018-03-15T08:13:41.980Z,11.15
2018-03-15T08:14:42.016Z,10.97
2018-03-15T08:15:41.989Z,11.18
2018-03-15T08:16:41.985Z,11.26
2018-03-15T08:17:41.971Z,10.97
2018-03-15T08:18:42.196Z,11.35
2018-03-15T08:19:41.963Z,11.44
2018-03-15T08:20:41.969Z,11.40
2018-03-15T08:21:41.969Z,10.90
2018-03-15T08:22:42.174Z,10.97
2018-03-15T08:23:41.950Z,10.71
2018-03-15T08:24:41.961Z,10.53
2018-03-15T08:25:41.968Z,10.40
2018-03-15T08:26:42.171Z,10.51
2018-03-15T08:27:41.951Z,10.26
2018-03-15T08:28:41.941Z,9.99
2018-03-15T08:29:41.951Z,10.26
2018-03-15T08:30:41.951Z,10.54
2018-03-15T08:31:41.933Z,10.44
2018-03-15T08:32:41.949Z,10.19
2018-03-15T08:33:41.936Z,10.01
2018-03-15T08:34:41.933Z,9.95
2018-03-15T08:35:41.931Z,9.98
2018-03-15T08:36:41.929Z,10.07
2018-03-15T08:37:41.922Z,10.22
2018-03-15T08:38:41.910Z,10.22
2018-03-15T08:39:41.908Z,10.34
2018-03-15T08:40:41.957Z,10.48
2018-03-15T08:41:41.909Z,10.41
2018-03-15T08:42:42.101Z,10.64
2018-03-15T08:43:41.900Z,11.11
2018-03-15T08:44:41.887Z,11.33
2018-03-15T08:45:41.884Z,11.47
2018-03-15T08:46:42.097Z,11.90
2018-03-15T08:47:41.890Z,12.03
2018-03-15T08:48:42.080Z,11.87
2018-03-15T08:49:42.086Z,12.24
2018-03-15T08:50:42.100Z,12.20
2018-03-15T08:51:42.131Z,12.28
2018-03-15T08:52:41.863Z,11.88
2018-03-15T08:53:41.857Z,11.65
2018-03-15T08:54:41.862Z,11.68
2018-03-15T08:55:41.848Z,11.87
2018-03-15T08:56:42.064Z,11.99
2018-03-15T08:57:41.841Z,11.75
2018-03-15T08:58:41.846Z,11.66
2018-03-15T08:59:41.844Z,11.54
2018-03-15T09:00:41.845Z,11.35
2018-03-15T09:01:42.055Z,11.07
2018-03-15T09:02:41.844Z,11.17
2018-03-15T09:03:41.819Z,11.23
2018-03-15T09:04:41.827Z,11.30
2018-03-15T09:05:42.031Z,11.10
2018-03-15T09:06:41.817Z,11.10
2018-03-15T09:07:42.025Z,11.08
2018-03-15T09:08:41.860Z,11.12
2018-03-15T09:09:41.804Z,11.07
2018-03-15T09:10:42.016Z,10.93
2018-03-15T09:11:41.785Z,11.02
2018-03-15T09:12:41.786Z,10.86
2018-03-15T09:13:41.784Z,10.99
2018-03-15T09:14:41.776Z,11.10
2018-03-15T09:15:41.987Z,11.07
2018-03-15T09:16:41.778Z,11.11
2018-03-15T09:17:41.970Z,11.05
2018-03-15T09:18:41.801Z,10.99
2018-03-15T09:19:41.757Z,10.97
2018-03-15T09:20:41.760Z,10.94
2018-03-15T09:21:41.772Z,11.08
2018-03-15T09:22:41.755Z,10.97
2018-03-15T09:23:41.772Z,11.07
2018-03-15T09:24:41.748Z,11.15
2018-03-15T09:25:41.951Z,11.15
2018-03-15T09:26:41.727Z,10.94
2018-03-15T09:27:41.723Z,10.86
2018-03-15T09:28:41.724Z,10.84
2018-03-15T09:29:41.721Z,10.84
2018-03-15T09:30:41.728Z,10.79
2018-03-15T09:31:41.925Z,10.82
2018-03-15T09:32:41.719Z,10.92
2018-03-15T09:33:41.712Z,10.86
2018-03-15T09:34:41.907Z,10.86
2018-03-15T09:35:41.918Z,10.94
2018-03-15T09:36:41.713Z,10.99
2018-03-15T09:37:41.688Z,11.02
2018-03-15T09:38:41.689Z,11.00
2018-03-15T09:39:41.705Z,11.12
2018-03-15T09:40:41.693Z,11.32
2018-03-15T09:41:41.886Z,11.47
2018-03-15T09:42:41.706Z,11.35
2018-03-15T09:43:41.675Z,11.36
2018-03-15T09:44:41.875Z,11.45
2018-03-15T09:45:41.868Z,11.54
2018-03-15T09:46:41.662Z,11.77
2018-03-15T09:47:41.646Z,11.80
2018-03-15T09:48:41.880Z,11.73
2018-03-15T09:49:41.651Z,11.80
2018-03-15T09:50:41.852Z,11.90
2018-03-15T09:51:41.641Z,12.12
2018-03-15T09:52:41.644Z,12.27
2018-03-15T09:53:41.624Z,12.37
2018-03-15T09:54:41.619Z,12.31
2018-03-15T09:55:41.817Z,12.28
2018-03-15T09:56:41.836Z,12.24
2018-03-15T09:57:41.608Z,12.21
2018-03-15T09:58:41.608Z,12.24
2018-03-15T09:59:41.605Z,12.28
2018-03-15T10:00:41.804Z,12.31
2018-03-15T10:01:41.604Z,12.32
2018-03-15T10:02:41.600Z,12.25
2018-03-15T10:03:41.587Z,12.27
2018-03-15T10:04:41.594Z,12.10
2018-03-15T10:05:41.633Z,12.24
2018-03-15T10:06:41.600Z,12.24
2018-03-15T10:07:41.775Z,12.20
2018-03-15T10:08:41.568Z,12.21
2018-03-15T10:09:41.579Z,12.22
2018-03-15T10:10:41.587Z,12.25
2018-03-15T10:11:41.584Z,12.35
2018-03-15T10:12:41.759Z,12.39
2018-03-15T10:13:41.553Z,12.50
2018-03-15T10:14:41.569Z,12.58
2018-03-15T10:15:41.583Z,12.60
2018-03-15T10:16:41.744Z,12.28
2018-03-15T10:17:41.560Z,12.39
2018-03-15T10:18:41.559Z,12.62
2018-03-15T10:19:41.530Z,12.49
2018-03-15T10:20:41.554Z,12.37
2018-03-15T10:21:41.533Z,12.53
2018-03-15T10:22:41.521Z,12.49
2018-03-15T10:23:41.733Z,12.32
2018-03-15T10:24:41.536Z,12.37
2018-03-15T10:25:41.523Z,12.37
2018-03-15T10:26:41.712Z,12.35
2018-03-15T10:27:41.504Z,12.31
2018-03-15T10:28:41.511Z,12.35
2018-03-15T10:29:41.501Z,12.25
2018-03-15T10:30:41.710Z,12.39
2018-03-15T10:31:41.512Z,12.47
2018-03-15T10:32:41.485Z,12.53
2018-03-15T10:33:41.511Z,12.53
2018-03-15T10:34:41.706Z,12.53
2018-03-15T10:35:41.681Z,12.62
2018-03-15T10:36:41.683Z,12.60
2018-03-15T10:37:41.482Z,12.65
2018-03-15T10:38:41.489Z,12.67
2018-03-15T10:39:41.489Z,12.67
2018-03-15T10:40:41.480Z,12.72
2018-03-15T10:41:41.671Z,12.65
2018-03-15T10:42:41.463Z,12.62
2018-03-15T10:43:41.465Z,12.67
2018-03-15T10:44:41.652Z,12.78
2018-03-15T10:45:41.650Z,12.90
2018-03-15T10:46:41.653Z,12.90
2018-03-15T10:47:41.447Z,12.86
2018-03-15T10:48:41.430Z,12.90
2018-03-15T10:49:41.454Z,12.95
2018-03-15T10:50:41.429Z,12.85
2018-03-15T10:51:41.440Z,12.72
2018-03-15T10:52:41.433Z,12.75
2018-03-15T10:53:41.633Z,12.75
2018-03-15T10:54:41.436Z,12.90
2018-03-15T10:55:41.422Z,12.94
2018-03-15T10:56:41.431Z,13.03
2018-03-15T10:57:41.443Z,13.11
2018-03-15T10:58:41.445Z,13.13
2018-03-15T10:59:41.411Z,13.16
2018-03-15T11:00:41.406Z,13.35
2018-03-15T11:01:41.416Z,13.49
2018-03-15T11:02:41.417Z,13.41
2018-03-15T11:03:41.412Z,13.56
2018-03-15T11:04:41.394Z,13.50
2018-03-15T11:05:41.392Z,13.44
2018-03-15T11:06:41.593Z,13.49
2018-03-15T11:07:41.383Z,13.52
2018-03-15T11:08:41.384Z,13.20
2018-03-15T11:09:41.386Z,13.20
2018-03-15T11:10:41.601Z,13.09
2018-03-15T11:11:41.381Z,13.12
2018-03-15T11:12:41.371Z,13.12
2018-03-15T11:13:41.380Z,13.22
2018-03-15T11:14:41.379Z,13.08
2018-03-15T11:15:41.368Z,12.95
2018-03-15T11:16:41.361Z,13.05
2018-03-15T11:17:41.558Z,13.08
2018-03-15T11:18:41.572Z,13.18
2018-03-15T11:19:41.339Z,13.13
2018-03-15T11:20:41.355Z,13.01
2018-03-15T11:21:41.367Z,13.01
2018-03-15T11:22:41.359Z,12.98
2018-03-15T11:23:41.416Z,13.03
2018-03-15T11:24:41.350Z,12.98
2018-03-15T11:25:41.352Z,12.80
2018-03-15T11:26:41.329Z,12.90
2018-03-15T11:27:41.327Z,12.94
2018-03-15T11:28:41.317Z,13.00
2018-03-15T11:29:41.519Z,12.98
2018-03-15T11:30:41.318Z,12.91
2018-03-15T11:31:41.531Z,12.93
2018-03-15T11:32:41.528Z,12.95
2018-03-15T11:33:41.302Z,12.94
2018-03-15T11:34:41.502Z,13.03
2018-03-15T11:35:41.295Z,13.00
2018-03-15T11:36:41.495Z,13.01
2018-03-15T11:37:41.311Z,13.00
2018-03-15T11:38:41.283Z,13.00
2018-03-15T11:39:41.296Z,13.01
2018-03-15T11:40:41.293Z,12.97
2018-03-15T11:41:41.332Z,12.94
2018-03-15T11:42:41.311Z,13.00
2018-03-15T11:43:41.282Z,13.00
2018-03-15T11:44:41.487Z,13.04
2018-03-15T11:45:41.264Z,13.00
2018-03-15T11:46:41.488Z,12.82
2018-03-15T11:47:41.461Z,12.79
2018-03-15T11:48:41.270Z,12.83
2018-03-15T11:49:41.471Z,12.76
2018-03-15T11:50:41.265Z,12.83
2018-03-15T11:51:41.270Z,12.85
2018-03-15T11:52:41.246Z,12.93
2018-03-15T11:53:41.245Z,12.94
2018-03-15T11:54:41.242Z,12.87
2018-03-15T11:55:41.237Z,13.04
2018-03-15T11:56:41.256Z,12.98
2018-03-15T11:57:41.245Z,12.93
2018-03-15T11:58:41.456Z,12.97
2018-03-15T11:59:41.237Z,12.90
2018-03-15T12:00:41.283Z,12.93
2018-03-15T12:01:41.274Z,12.85
2018-03-15T12:02:41.422Z,12.80
2018-03-15T12:03:41.226Z,12.93
2018-03-15T12:04:41.224Z,12.91
2018-03-15T12:05:41.238Z,12.91
2018-03-15T12:06:41.410Z,12.91
2018-03-15T12:07:41.271Z,12.91
2018-03-15T12:08:41.212Z,12.85
2018-03-15T12:09:41.426Z,12.80
2018-03-15T12:10:41.399Z,12.94
2018-03-15T12:11:41.406Z,12.90
2018-03-15T12:12:41.202Z,12.90
2018-03-15T12:13:41.426Z,12.86
2018-03-15T12:14:41.417Z,12.85
2018-03-15T12:15:41.196Z,12.79
2018-03-15T12:16:41.387Z,12.82
2018-03-15T12:17:41.396Z,12.94
2018-03-15T12:18:41.183Z,13.03
2018-03-15T12:19:41.185Z,12.95
2018-03-15T12:20:41.166Z,13.00
2018-03-15T12:21:41.367Z,13.04
2018-03-15T12:22:41.163Z,13.00
2018-03-15T12:23:41.183Z,13.03
2018-03-15T12:24:41.375Z,13.00
2018-03-15T12:25:41.355Z,12.97
2018-03-15T12:26:41.149Z,13.00
2018-03-15T12:27:41.158Z,12.97
2018-03-15T12:28:41.142Z,13.00
2018-03-15T12:29:41.151Z,12.97
2018-03-15T12:30:41.148Z,13.01
2018-03-15T12:31:41.147Z,13.00
2018-03-15T12:32:41.335Z,12.93
2018-03-15T12:33:41.128Z,12.94
2018-03-15T12:34:41.129Z,12.93
2018-03-15T12:35:41.135Z,12.91
2018-03-15T12:36:41.131Z,12.87
2018-03-15T12:37:41.130Z,12.95
2018-03-15T12:38:41.128Z,12.86
2018-03-15T12:39:41.337Z,12.90
2018-03-15T12:40:41.135Z,12.87
2018-03-15T12:41:41.324Z,12.94
2018-03-15T12:42:41.106Z,12.98
2018-03-15T12:43:41.124Z,12.91
2018-03-15T12:44:41.130Z,12.91
2018-03-15T12:45:41.108Z,12.95
2018-03-15T12:46:41.308Z,12.97
2018-03-15T12:47:41.291Z,12.86
2018-03-15T12:48:41.290Z,12.91
2018-03-15T12:49:41.083Z,12.94
2018-03-15T12:50:41.091Z,13.01
2018-03-15T12:51:41.100Z,13.04
2018-03-15T12:52:41.089Z,12.98
2018-03-15T12:53:41.075Z,13.00
2018-03-15T12:54:41.067Z,13.03
2018-03-15T12:55:41.293Z,12.95
2018-03-15T12:56:41.292Z,12.97
2018-03-15T12:57:41.059Z,12.97
2018-03-15T12:58:41.061Z,12.98
2018-03-15T12:59:41.269Z,13.13
2018-03-15T13:00:41.053Z,13.12
2018-03-15T13:01:41.061Z,13.11
2018-03-15T13:02:41.060Z,13.09
2018-03-15T13:03:41.044Z,13.15
2018-03-15T13:04:41.267Z,13.11
2018-03-15T13:05:41.082Z,13.15
2018-03-15T13:06:41.253Z,13.15
2018-03-15T13:07:41.031Z,13.16